Time;durP1;ratioP1;P1;durP2;ratioP2;P2;SDS_P1;SDS_P2;PMS_P1;PMS_P2;Temp;Humidity;BMP_temperature;BMP_pressure;BME280_temperature;BME280_humidity;BME280_pressure;Samples;Min_cycle;Max_cycle;Signal;HPM_P1;HPM_P2
2021/12/19 00:13:16;;;;;;;55.70;28.70;;;;;;;4.23;93.75;103456.72;10500185;28;20040;-89
2021/12/19 00:18:17;;;;;;;64.18;29.05;;;;;;;4.23;93.05;103462.84;10496817;28;20476;-89
2021/12/19 00:23:17;;;;;;;55.10;26.45;;;;;;;4.25;93.48;103452.63;10498264;28;20048;-89
2021/12/19 00:28:18;;;;;;;53.35;27.65;;;;;;;4.26;93.05;103442.47;10451475;28;20472;-89
2021/12/19 00:33:18;;;;;;;56.70;26.98;;;;;;;4.30;93.79;103429.84;10496887;28;20040;-90
2021/12/19 00:38:19;;;;;;;55.30;29.02;;;;;;;4.30;93.20;103432.44;10496772;28;20036;-89
2021/12/19 00:43:32;;;;;;;51.03;28.15;;;;;;;4.32;92.93;103434.44;10480664;28;20530;-90
2021/12/19 00:48:37;;;;;;;49.55;23.95;;;;;;;4.35;93.78;103441.66;10497724;28;20029;-89
2021/12/19 00:53:38;;;;;;;50.55;25.90;;;;;;;4.37;93.35;103432.41;10480104;28;20033;-90
2021/12/19 00:58:38;;;;;;;47.63;25.88;;;;;;;4.35;93.23;103428.69;10495109;28;20028;-90
2021/12/19 01:03:43;;;;;;;44.78;27.13;;;;;;;4.36;93.79;103426.28;10496673;28;20530;-90
2021/12/19 01:08:43;;;;;;;41.67;24.98;;;;;;;4.35;93.25;103416.66;10495293;28;20068;-89
2021/12/19 01:13:44;;;;;;;46.10;23.23;;;;;;;4.36;93.22;103415.91;10478826;28;20068;-90
2021/12/19 01:18:44;;;;;;;43.22;24.63;;;;;;;4.36;93.50;103412.41;10477573;28;20477;-90
2021/12/19 01:23:45;;;;;;;45.55;25.60;;;;;;;4.37;93.22;103409.97;10494670;28;20099;-90
2021/12/19 01:28:45;;;;;;;43.60;21.52;;;;;;;4.41;93.31;103409.56;10461006;28;20024;-89
2021/12/19 01:33:46;;;;;;;47.90;22.55;;;;;;;4.37;92.83;103404.78;10483389;28;20404;-91
2021/12/19 01:38:46;;;;;;;45.58;25.70;;;;;;;4.40;93.00;103402.53;10478481;28;20056;-90
2021/12/19 01:43:47;;;;;;;46.53;24.63;;;;;;;4.41;93.25;103398.28;10494989;28;20060;-90
2021/12/19 01:48:47;;;;;;;47.83;24.13;;;;;;;4.40;92.97;103406.81;10478113;28;20032;-90
2021/12/19 01:53:48;;;;;;;43.50;23.05;;;;;;;4.42;93.03;103397.53;10476993;28;20028;-90
2021/12/19 01:58:48;;;;;;;45.45;23.30;;;;;;;4.44;92.83;103392.50;10477582;28;20104;-90
2021/12/19 02:03:49;;;;;;;37.83;21.15;;;;;;;4.44;92.88;103385.66;10494806;28;20460;-91
2021/12/19 02:08:53;;;;;;;40.80;21.65;;;;;;;4.46;92.63;103375.44;10494066;28;20067;-91
2021/12/19 02:13:53;;;;;;;39.33;22.83;;;;;;;4.48;92.97;103379.13;10493737;28;20021;-91
2021/12/19 02:18:54;;;;;;;34.42;18.05;;;;;;;4.48;92.44;103376.53;10495097;28;20514;-91
2021/12/19 02:24:03;;;;;;;32.25;18.77;;;;;;;4.47;93.10;103373.03;10500097;28;20039;-90
2021/12/19 02:29:03;;;;;;;29.23;17.48;;;;;;;4.46;92.36;103362.47;10468709;28;20021;-91
2021/12/19 02:34:10;;;;;;;33.00;15.30;;;;;;;4.48;93.02;103369.69;10467906;28;20618;-91
2021/12/19 02:49:32;;;;;;;32.67;18.15;;;;;;;4.44;92.77;103348.41;10502413;28;20028;-87
2021/12/19 02:54:32;;;;;;;32.27;15.53;;;;;;;4.43;92.61;103331.00;10485529;28;20036;-89
2021/12/19 02:59:33;;;;;;;36.10;18.35;;;;;;;4.44;93.08;103338.03;10500807;28;20392;-89
2021/12/19 03:04:33;;;;;;;39.97;19.77;;;;;;;4.40;92.39;103329.91;10500915;28;20025;-89
2021/12/19 03:20:06;;;;;;;43.85;21.52;;;;;;;4.36;92.94;103316.47;10500362;28;20019;-90
2021/12/19 03:25:07;;;;;;;56.83;29.02;;;;;;;4.36;92.77;103316.47;10483822;28;20145;-90
2021/12/19 03:30:08;;;;;;;56.28;26.73;;;;;;;4.37;93.20;103313.13;10499324;28;20037;-89
2021/12/19 03:35:09;;;;;;;66.10;31.77;;;;;;;4.38;93.21;103313.28;10497137;28;20036;-89
2021/12/19 03:40:14;;;;;;;57.08;28.88;;;;;;;4.38;92.71;103302.91;10498426;28;20033;-90
2021/12/19 03:45:20;;;;;;;55.17;28.00;;;;;;;4.49;93.51;103305.78;10500662;28;20040;-89
2021/12/19 03:50:22;;;;;;;51.53;26.65;;;;;;;4.44;93.36;103297.50;10496140;28;20039;-90
2021/12/19 03:55:24;;;;;;;48.08;27.73;;;;;;;4.44;93.47;103293.97;10462522;28;20060;-88
2021/12/19 04:00:26;;;;;;;52.40;28.15;;;;;;;4.45;92.79;103288.97;10506745;28;20032;-87
2021/12/19 04:05:27;;;;;;;58.50;28.60;;;;;;;4.40;93.41;103290.13;10500551;28;20452;-90
2021/12/19 04:10:28;;;;;;;46.55;25.88;;;;;;;4.44;93.66;103286.19;10492301;28;20025;-88
2021/12/19 04:15:37;;;;;;;58.85;26.10;;;;;;;4.48;93.69;103272.81;10474447;28;20040;-86
2021/12/19 04:20:41;;;;;;;53.05;23.98;;;;;;;4.40;93.51;103278.06;10474678;28;20090;-89
2021/12/19 04:25:42;;;;;;;47.25;28.00;;;;;;;4.37;92.80;103271.63;10479798;28;20029;-90
2021/12/19 04:30:46;;;;;;;60.95;27.88;;;;;;;4.32;92.64;103255.53;10479746;28;20049;-89
2021/12/19 04:35:46;;;;;;;55.95;26.52;;;;;;;4.33;93.29;103252.19;10496882;28;20043;-88
2021/12/19 05:02:12;;;;;;;55.47;29.58;;;;;;;4.21;93.56;103219.72;10479006;28;20122;-88
2021/12/19 05:17:54;;;;;;;79.25;39.92;;;;;;;4.25;93.09;103219.31;10494292;28;20029;-88
2021/12/19 05:23:20;;;;;;;87.05;37.03;;;;;;;4.25;93.30;103224.50;10494628;28;20422;-88
2021/12/19 05:28:21;;;;;;;73.57;35.45;;;;;;;4.24;92.91;103235.63;10491989;28;20086;-87
2021/12/19 05:33:21;;;;;;;57.65;29.40;;;;;;;4.20;93.25;103223.06;10493585;28;20769;-89
2021/12/19 05:49:01;;;;;;;81.78;32.00;;;;;;;4.31;92.77;103222.59;10495194;28;20024;-90
2021/12/19 05:54:03;;;;;;;67.53;26.92;;;;;;;4.35;92.79;103221.28;10492198;28;20039;-89
2021/12/19 05:59:03;;;;;;;64.95;32.22;;;;;;;4.23;92.89;103211.38;10493061;28;20499;-89
2021/12/19 06:04:04;;;;;;;57.30;27.55;;;;;;;4.13;92.50;103210.16;10460023;28;20102;-89
2021/12/19 06:09:05;;;;;;;58.50;25.38;;;;;;;4.19;93.16;103222.16;10493739;28;20461;-89
2021/12/19 06:14:06;;;;;;;59.90;29.23;;;;;;;4.09;93.59;103206.34;10477621;28;20389;-88
2021/12/19 06:19:06;;;;;;;59.38;25.73;;;;;;;4.15;93.73;103203.50;10476651;28;20068;-89
2021/12/19 06:24:07;;;;;;;63.03;32.03;;;;;;;4.22;93.55;103201.75;10493845;28;20467;-89
2021/12/19 06:29:07;;;;;;;72.30;31.02;;;;;;;4.21;93.15;103205.09;10493278;28;20052;-88
2021/12/19 06:34:08;;;;;;;39.05;19.20;;;;;;;4.22;92.08;103206.00;10491721;28;20048;-88
2021/12/19 06:39:08;;;;;;;34.67;15.23;;;;;;;4.10;91.46;103201.31;10493717;28;20544;-88
2021/12/19 06:44:09;;;;;;;26.65;13.60;;;;;;;4.00;92.19;103197.53;10475462;28;20169;-88
2021/12/19 06:49:09;;;;;;;19.35;10.45;;;;;;;3.87;92.40;103190.03;10491026;28;20125;-88
2021/12/19 06:54:09;;;;;;;20.98;13.18;;;;;;;3.84;92.32;103188.03;10492018;28;20036;-86
2021/12/19 06:59:10;;;;;;;27.45;12.10;;;;;;;3.80;92.65;103181.59;10491913;28;20107;-86
2021/12/19 07:04:11;;;;;;;17.85;10.13;;;;;;;3.74;92.39;103178.31;10491554;28;20498;-85
2021/12/19 07:09:11;;;;;;;18.25;10.15;;;;;;;3.71;92.40;103165.00;10453281;28;20039;-90
2021/12/19 07:14:11;;;;;;;19.48;9.88;;;;;;;3.69;92.50;103166.50;10464596;28;20445;-91
2021/12/19 07:19:12;;;;;;;17.23;10.00;;;;;;;3.70;92.49;103159.66;10483135;28;20039;-90
2021/12/19 07:24:12;;;;;;;22.98;10.10;;;;;;;3.71;92.70;103164.09;10499141;28;20123;-92
2021/12/19 07:29:13;;;;;;;24.55;13.75;;;;;;;3.76;92.93;103160.34;10498139;28;20121;-89
2021/12/19 07:34:14;;;;;;;26.17;15.13;;;;;;;3.76;93.11;103155.19;10464553;28;20258;-89
2021/12/19 07:39:37;;;;;;;40.10;18.15;;;;;;;3.75;92.84;103149.06;10500262;28;20040;-89
2021/12/19 07:44:38;;;;;;;41.75;17.35;;;;;;;3.81;93.51;103147.16;10498428;28;20043;-89
2021/12/19 07:49:38;;;;;;;28.00;16.13;;;;;;;3.81;93.27;103139.38;10497804;28;20097;-89
2021/12/19 07:54:39;;;;;;;40.85;19.52;;;;;;;3.82;93.63;103142.91;10496024;28;20181;-90
2021/12/19 07:59:39;;;;;;;38.53;21.08;;;;;;;3.86;93.21;103141.56;10499102;28;20025;-91
2021/12/19 08:04:40;;;;;;;51.20;20.27;;;;;;;3.92;93.47;103150.03;10498915;28;20111;-90
2021/12/19 08:09:58;;;;;;;42.58;19.58;;;;;;;3.95;93.42;103146.13;10535924;28;20074;-89
2021/12/19 08:14:58;;;;;;;67.55;23.25;;;;;;;3.96;93.74;103141.84;10501279;28;20040;-84
2021/12/19 08:19:59;;;;;;;49.67;19.27;;;;;;;4.02;93.11;103141.63;10531350;28;20446;-84
2021/12/19 08:25:00;;;;;;;36.33;16.38;;;;;;;4.04;93.44;103140.13;10519202;28;20025;-90
2021/12/19 08:30:01;;;;;;;37.28;20.25;;;;;;;4.02;93.61;103137.34;10479024;28;20098;-90
2021/12/19 08:35:01;;;;;;;44.40;18.55;;;;;;;4.03;93.52;103134.00;10474616;28;20052;-88
2021/12/19 08:40:03;;;;;;;38.33;19.00;;;;;;;4.05;93.37;103124.72;10497135;28;20036;-88
2021/12/19 08:45:04;;;;;;;38.10;20.13;;;;;;;4.02;93.13;103124.38;10495146;28;20043;-88
2021/12/19 08:50:05;;;;;;;40.05;20.85;;;;;;;3.98;92.99;103129.97;10500201;28;20031;-88
2021/12/19 08:55:07;;;;;;;40.72;18.48;;;;;;;4.03;92.88;103122.72;10508083;28;20044;-88
2021/12/19 09:00:10;;;;;;;41.60;21.88;;;;;;;4.11;92.91;103121.91;10513258;28;20372;-88
2021/12/19 09:05:17;;;;;;;35.28;17.20;;;;;;;4.11;93.40;103120.22;10510434;28;20115;-89
2021/12/19 09:10:17;;;;;;;41.22;20.50;;;;;;;4.11;92.58;103112.44;10533847;28;20016;-89
2021/12/19 09:15:18;;;;;;;36.80;18.45;;;;;;;4.15;93.22;103113.72;10496906;28;20056;-85
2021/12/19 09:20:19;;;;;;;35.33;19.67;;;;;;;4.17;92.71;103116.44;10518799;28;20642;-89
2021/12/19 09:25:23;;;;;;;41.80;21.38;;;;;;;4.27;92.79;103108.94;10498030;28;20054;-88
2021/12/19 09:30:25;;;;;;;37.38;21.83;;;;;;;4.32;92.50;103109.44;10507754;28;20074;-89
2021/12/19 09:35:28;;;;;;;35.83;19.08;;;;;;;4.41;92.66;103118.22;10539252;28;20093;-90
2021/12/19 09:40:39;;;;;;;43.22;22.10;;;;;;;4.46;93.07;103117.06;10503768;28;20028;-89
2021/12/19 09:45:39;;;;;;;35.85;20.80;;;;;;;4.54;92.27;103104.91;10535742;28;20029;-87
2021/12/19 09:50:40;;;;;;;37.17;17.67;;;;;;;4.59;92.27;103101.13;10535226;28;20029;-88
2021/12/19 09:55:41;;;;;;;29.25;16.58;;;;;;;4.58;91.98;103107.06;10535870;28;20169;-88
2021/12/19 10:00:42;;;;;;;42.97;21.52;;;;;;;4.59;92.17;103095.03;10520024;28;20105;-89
2021/12/19 10:05:42;;;;;;;35.60;18.02;;;;;;;4.61;91.66;103096.13;10518095;28;20031;-88
2021/12/19 10:10:54;;;;;;;28.83;17.88;;;;;;;4.65;91.28;103085.31;10538562;28;20412;-88
2021/12/19 10:15:54;;;;;;;28.88;12.90;;;;;;;4.77;91.86;103077.91;10536204;28;20036;-88
2021/12/19 10:21:02;;;;;;;40.50;19.00;;;;;;;4.83;91.77;103073.38;10518214;28;20043;-86
2021/12/19 10:26:07;;;;;;;32.60;18.45;;;;;;;4.80;91.25;103071.41;10518792;28;20035;-87
2021/12/19 10:31:08;;;;;;;34.97;18.73;;;;;;;4.75;91.40;103066.47;10519823;28;20040;-88
2021/12/19 10:36:10;;;;;;;43.60;19.60;;;;;;;4.83;92.29;103068.19;10519111;28;20464;-88
2021/12/19 10:41:20;;;;;;;32.92;19.45;;;;;;;4.85;91.82;103058.91;10535876;28;20029;-87
2021/12/19 10:46:28;;;;;;;34.17;18.85;;;;;;;4.93;92.31;103050.25;10528506;28;20075;-88
2021/12/19 10:51:32;;;;;;;32.70;16.67;;;;;;;4.96;91.83;103044.47;10543039;28;20034;-88
2021/12/19 10:56:35;;;;;;;39.95;19.17;;;;;;;4.95;91.59;103035.75;10525396;28;20199;-88
2021/12/19 11:01:47;;;;;;;31.20;16.87;;;;;;;5.06;91.76;103021.31;10473847;28;20033;-88
2021/12/19 11:06:52;;;;;;;23.50;14.70;;;;;;;5.21;91.90;103018.50;10485520;28;20762;-88
2021/12/19 11:12:01;;;;;;;27.15;14.75;;;;;;;5.35;91.43;103000.06;10468018;28;20025;-88
2021/12/19 11:17:14;;;;;;;25.30;15.80;;;;;;;5.46;91.48;103000.25;10499791;28;20766;-87
2021/12/19 11:22:23;;;;;;;23.80;14.05;;;;;;;5.52;90.01;102985.28;10500119;28;20028;-88
2021/12/19 11:27:24;;;;;;;28.42;14.23;;;;;;;5.52;90.47;102975.81;10501265;28;20123;-92
2021/12/19 11:32:53;;;;;;;30.40;14.25;;;;;;;5.63;91.01;102979.50;10499244;28;20102;-86
2021/12/19 11:37:59;;;;;;;20.10;12.18;;;;;;;5.66;89.47;102971.09;10499718;28;20036;-89
2021/12/19 11:43:10;;;;;;;20.25;13.20;;;;;;;5.51;89.66;102963.56;10488188;28;20033;-88
2021/12/19 11:48:15;;;;;;;22.45;12.65;;;;;;;5.42;89.95;102957.44;10462480;28;20032;-86
2021/12/19 11:53:15;;;;;;;22.67;12.75;;;;;;;5.38;89.88;102956.22;10498733;28;20083;-86
2021/12/19 11:58:24;;;;;;;25.70;12.13;;;;;;;5.53;90.71;102943.88;10486195;28;20029;-87
2021/12/19 12:03:29;;;;;;;24.67;11.85;;;;;;;5.63;89.47;102940.53;10506610;28;20028;-88
2021/12/19 12:08:30;;;;;;;19.00;10.70;;;;;;;5.59;89.94;102934.09;10513367;28;20024;-88
2021/12/19 12:13:40;;;;;;;28.85;11.55;;;;;;;5.62;89.85;102930.91;10516157;28;20479;-88
2021/12/19 12:18:41;;;;;;;14.00;7.45;;;;;;;5.90;89.33;102922.34;10522781;28;20115;-88
2021/12/19 12:23:58;;;;;;;12.90;7.73;;;;;;;5.92;87.89;102918.22;10520974;28;20036;-84
2021/12/19 12:28:59;;;;;;;12.90;6.90;;;;;;;5.90;87.98;102912.88;10496300;28;20032;-89
2021/12/19 12:33:59;;;;;;;7.90;5.55;;;;;;;5.86;87.96;102905.56;10519199;28;20124;-91
2021/12/19 12:39:04;;;;;;;9.00;3.90;;;;;;;5.72;87.63;102904.16;10499950;28;20365;-93
2021/12/19 12:44:16;;;;;;;11.15;5.30;;;;;;;5.77;87.71;102896.84;10505122;28;20365;-93
2021/12/19 12:49:20;;;;;;;9.02;5.45;;;;;;;5.65;88.52;102892.25;10539109;28;20112;-91
2021/12/19 12:54:25;;;;;;;7.85;3.33;;;;;;;5.79;86.79;102883.22;10486314;28;20084;-92
2021/12/19 12:59:30;;;;;;;4.20;3.15;;;;;;;5.74;86.85;102894.84;10503075;28;20028;-89
2021/12/19 13:04:30;;;;;;;5.05;2.17;;;;;;;5.66;87.57;102880.16;10497512;28;20021;-85
2021/12/19 13:09:31;;;;;;;7.43;2.90;;;;;;;5.58;87.54;102877.72;10512796;28;20067;-86
2021/12/19 13:14:34;;;;;;;4.33;2.57;;;;;;;5.70;86.45;102878.03;10516941;28;20387;-85
2021/12/19 13:19:37;;;;;;;6.53;2.42;;;;;;;5.55;86.40;102868.72;10485434;28;20027;-85
2021/12/19 13:24:38;;;;;;;6.10;2.30;;;;;;;5.47;86.85;102854.03;10505673;28;20024;-85
2021/12/19 13:29:39;;;;;;;6.75;2.97;;;;;;;5.53;86.81;102852.06;10493349;28;20112;-84
2021/12/19 13:34:40;;;;;;;5.25;2.78;;;;;;;5.46;86.20;102841.81;10511846;28;20612;-85
2021/12/19 13:39:43;;;;;;;5.55;4.18;;;;;;;5.38;87.02;102838.44;10493803;28;20068;-85
2021/12/19 13:44:43;;;;;;;4.13;2.30;;;;;;;5.55;85.44;102834.94;10516405;28;20502;-84
2021/12/19 13:49:44;;;;;;;4.95;2.97;;;;;;;5.49;86.05;102840.44;10511676;28;20035;-85
2021/12/19 13:54:44;;;;;;;4.00;2.85;;;;;;;5.66;85.75;102838.59;10501233;28;20475;-85
2021/12/19 13:59:45;;;;;;;3.72;1.65;;;;;;;5.62;84.32;102840.00;10495647;28;20051;-85
2021/12/19 14:04:45;;;;;;;2.08;1.00;;;;;;;5.63;84.35;102843.50;10500190;28;20567;-86
2021/12/19 14:09:46;;;;;;;3.55;1.30;;;;;;;5.53;84.38;102836.47;10510004;28;20075;-87
2021/12/19 14:14:48;;;;;;;3.10;1.92;;;;;;;5.39;84.90;102835.09;10481267;28;20078;-91
2021/12/19 14:19:53;;;;;;;3.78;1.40;;;;;;;5.28;86.06;102826.22;10512522;28;20472;-90
2021/12/19 14:24:54;;;;;;;6.13;2.58;;;;;;;5.36;85.81;102829.56;10508492;28;20032;-91
2021/12/19 14:29:54;;;;;;;5.90;2.30;;;;;;;5.28;85.90;102821.94;10508021;28;20023;-90
2021/12/19 14:35:00;;;;;;;5.32;2.22;;;;;;;5.25;85.88;102813.84;10516905;28;20400;-90
2021/12/19 14:40:14;;;;;;;9.75;2.80;;;;;;;5.14;86.70;102828.34;10493820;28;20036;-91
2021/12/19 14:45:20;;;;;;;11.73;3.80;;;;;;;5.11;85.97;102815.06;10527135;28;20037;-88
2021/12/19 14:50:24;;;;;;;7.30;4.03;;;;;;;5.14;86.18;102820.56;10502051;28;20020;-89
2021/12/19 14:55:30;;;;;;;7.82;3.58;;;;;;;5.02;86.82;102820.97;10487057;28;20396;-89
2021/12/19 15:00:32;;;;;;;6.80;3.53;;;;;;;4.95;87.21;102814.28;10494198;28;20021;-89
2021/12/19 15:05:33;;;;;;;9.30;5.28;;;;;;;4.98;86.45;102797.31;10487712;28;20112;-90
2021/12/19 15:10:34;;;;;;;8.00;4.22;;;;;;;5.02;86.11;102795.03;10480376;28;20077;-91
2021/12/19 15:15:34;;;;;;;13.65;4.13;;;;;;;5.02;85.69;102782.06;10485786;28;20461;-90
2021/12/19 15:20:35;;;;;;;8.68;5.57;;;;;;;4.96;86.84;102778.06;10459929;28;20078;-91
2021/12/19 15:25:35;;;;;;;8.95;4.93;;;;;;;4.94;86.30;102777.00;10501753;28;20045;-89
2021/12/19 15:30:36;;;;;;;11.93;5.18;;;;;;;4.88;86.79;102773.78;10489378;28;20073;-90
2021/12/19 15:35:36;;;;;;;14.23;5.50;;;;;;;4.80;87.69;102775.63;10478616;28;20112;-91
2021/12/19 15:40:37;;;;;;;11.32;6.43;;;;;;;4.83;87.71;102780.19;10522648;28;20378;-90
2021/12/19 15:45:40;;;;;;;11.00;5.65;;;;;;;4.87;87.68;102771.06;10497876;28;20119;-88
2021/12/19 15:50:41;;;;;;;13.27;6.05;;;;;;;4.76;88.04;102770.88;10516935;28;20056;-91
2021/12/19 15:55:42;;;;;;;11.02;6.65;;;;;;;4.69;88.42;102771.91;10499869;28;20131;-86
2021/12/19 16:00:44;;;;;;;13.98;7.35;;;;;;;4.67;88.51;102762.16;10502325;28;20034;-87
2021/12/19 16:05:47;;;;;;;12.98;7.57;;;;;;;4.73;88.50;102761.84;10501691;28;20391;-90
2021/12/19 16:10:47;;;;;;;12.77;7.50;;;;;;;4.75;88.61;102760.34;10484177;28;20048;-87
2021/12/19 16:15:48;;;;;;;131.00;74.15;;;;;;;4.61;88.65;102766.72;10509388;28;20040;-90
2021/12/19 16:20:51;;;;;;;13.38;7.38;;;;;;;4.55;89.02;102757.56;10503112;28;20117;-91
2021/12/19 16:25:52;;;;;;;15.38;8.70;;;;;;;4.50;89.34;102763.94;10496953;28;20024;-88
2021/12/19 16:30:53;;;;;;;20.13;7.22;;;;;;;4.44;89.68;102767.56;10497806;28;20080;-83
2021/12/19 16:35:53;;;;;;;11.18;6.40;;;;;;;4.41;90.08;102765.59;10464654;28;20391;-86
2021/12/19 16:41:01;;;;;;;14.07;7.30;;;;;;;4.37;90.75;102761.75;10494366;28;20059;-84
2021/12/19 16:46:06;;;;;;;11.98;7.22;;;;;;;4.35;90.74;102763.28;10514299;28;20035;-85
2021/12/19 16:51:07;;;;;;;19.02;9.57;;;;;;;4.36;91.05;102751.25;10492059;28;20560;-87
2021/12/19 16:56:08;;;;;;;12.30;7.53;;;;;;;4.31;90.81;102749.84;10498404;28;20028;-86
2021/12/19 17:01:09;;;;;;;14.60;7.90;;;;;;;4.31;91.32;102745.56;10508293;28;20059;-85
2021/12/19 17:06:09;;;;;;;11.38;8.35;;;;;;;4.28;91.02;102750.44;10480781;28;20464;-86
2021/12/19 17:11:11;;;;;;;12.85;8.30;;;;;;;4.25;91.43;102747.53;10476607;28;20021;-90
2021/12/19 17:16:16;;;;;;;12.27;6.40;;;;;;;4.27;91.44;102748.59;10491175;28;20505;-87
2021/12/19 17:21:18;;;;;;;11.00;6.35;;;;;;;4.24;91.62;102745.69;10494413;28;20056;-91
2021/12/19 17:26:18;;;;;;;15.98;6.97;;;;;;;4.23;91.36;102749.97;10469149;28;20107;-84
2021/12/19 17:31:19;;;;;;;15.15;6.18;;;;;;;4.20;91.39;102746.13;10493410;28;20094;-83
2021/12/19 17:36:24;;;;;;;10.43;6.25;;;;;;;4.19;91.79;102728.75;10490395;28;20108;-87
2021/12/19 17:41:25;;;;;;;10.05;7.10;;;;;;;4.15;92.08;102729.19;10510186;28;20035;-87
2021/12/19 17:46:26;;;;;;;12.13;6.13;;;;;;;4.13;92.29;102733.28;10494526;28;20036;-88
2021/12/19 17:51:27;;;;;;;10.05;6.00;;;;;;;4.09;91.89;102727.78;10479360;28;20059;-84
2021/12/19 17:56:27;;;;;;;8.57;4.47;;;;;;;4.08;91.69;102730.25;10486755;28;20464;-86
2021/12/19 18:01:28;;;;;;;7.82;4.97;;;;;;;4.09;92.41;102732.97;10517809;28;20552;-85
2021/12/19 18:06:32;;;;;;;9.40;5.18;;;;;;;4.05;92.55;102716.97;10491586;28;20115;-88
2021/12/19 18:11:33;;;;;;;8.48;5.45;;;;;;;4.08;92.56;102713.00;10484822;28;20404;-87
2021/12/19 18:16:33;;;;;;;10.25;5.43;;;;;;;4.07;92.31;102698.22;10494993;28;20034;-88
2021/12/19 18:21:34;;;;;;;17.90;8.43;;;;;;;4.08;92.32;102710.41;10492298;28;20064;-92
2021/12/19 18:26:35;;;;;;;12.60;7.13;;;;;;;4.06;93.24;102698.97;10497883;28;20123;-91
2021/12/19 18:31:36;;;;;;;10.63;6.97;;;;;;;4.06;92.74;102703.25;10495332;28;20078;-90
2021/12/19 18:36:43;;;;;;;10.90;6.97;;;;;;;4.08;92.96;102706.91;10468445;28;20039;-92
2021/12/19 18:41:53;;;;;;;12.38;7.53;;;;;;;4.13;93.12;102689.22;10498066;28;20050;-92
2021/12/19 18:57:32;;;;;;;16.83;9.25;;;;;;;4.09;93.14;102686.31;10517742;28;20024;-92
2021/12/19 19:02:43;;;;;;;25.40;16.90;;;;;;;4.10;93.00;102693.34;10500054;28;20056;-90
2021/12/19 19:07:45;;;;;;;24.58;17.48;;;;;;;4.09;92.98;102682.84;10477833;28;20036;-87
2021/12/19 19:12:50;;;;;;;15.55;10.35;;;;;;;4.09;93.27;102693.19;10488572;28;20418;-88
2021/12/19 19:17:52;;;;;;;23.63;11.30;;;;;;;4.08;93.00;102700.03;10464620;28;20495;-90
2021/12/19 19:22:53;;;;;;;17.73;9.43;;;;;;;4.10;93.08;102693.34;10466563;28;20025;-88
2021/12/19 19:27:53;;;;;;;17.98;10.10;;;;;;;4.14;93.18;102686.81;10482972;28;20025;-93
2021/12/19 19:32:54;;;;;;;21.90;11.30;;;;;;;4.20;93.25;102684.84;10464191;28;20159;-90
2021/12/19 19:38:13;;;;;;;18.77;11.20;;;;;;;4.19;92.91;102677.84;10476858;28;20067;-89
2021/12/19 19:49:17;;;;;;;16.25;10.10;;;;;;;4.17;93.53;102684.53;10499482;28;20052;-92
2021/12/19 19:53:44;;;;;;;19.45;11.02;;;;;;;4.20;93.06;102676.16;10495271;28;20048;-91
2021/12/19 19:58:45;;;;;;;19.63;10.88;;;;;;;4.21;92.95;102676.31;10498444;28;20052;-91
2021/12/19 20:03:45;;;;;;;19.85;11.48;;;;;;;4.20;93.46;102663.19;10496861;28;20024;-91
2021/12/19 20:08:46;;;;;;;19.98;14.85;;;;;;;4.24;93.23;102680.88;10481463;28;20072;-91
2021/12/19 20:13:46;;;;;;;28.50;16.88;;;;;;;4.30;93.05;102678.03;10498775;28;20060;-92
2021/12/19 20:18:47;;;;;;;25.70;14.00;;;;;;;4.29;93.30;102676.19;10495945;28;20021;-92
2021/12/19 20:23:47;;;;;;;26.63;14.65;;;;;;;4.29;92.99;102684.88;10481349;28;20025;-92
2021/12/19 20:28:48;;;;;;;24.92;14.38;;;;;;;4.18;93.10;102676.00;10452998;28;20032;-92
2021/12/19 20:33:48;;;;;;;31.63;16.13;;;;;;;4.10;92.95;102677.78;10479190;28;20131;-91
2021/12/19 20:38:49;;;;;;;26.25;15.77;;;;;;;3.96;93.42;102693.59;10480955;28;20052;-92
2021/12/19 20:43:55;;;;;;;26.55;16.25;;;;;;;3.91;93.10;102677.59;10481197;28;20078;-92
2021/12/19 20:49:03;;;;;;;22.70;14.55;;;;;;;3.99;93.23;102683.53;10463622;28;20109;-92
2021/12/19 20:54:04;;;;;;;27.92;15.30;;;;;;;4.03;93.77;102675.31;10495759;28;20488;-92
2021/12/19 20:59:05;;;;;;;30.38;17.67;;;;;;;4.09;94.04;102667.28;10467150;28;20039;-91
2021/12/19 21:04:05;;;;;;;32.50;21.15;;;;;;;4.14;93.07;102671.28;10480127;28;20029;-91
2021/12/19 21:09:08;;;;;;;31.77;21.65;;;;;;;4.22;93.47;102672.03;10496623;28;20025;-91
2021/12/19 21:14:13;;;;;;;45.63;21.02;;;;;;;4.29;93.79;102673.59;10461789;28;20039;-91
2021/12/19 21:19:23;;;;;;;33.15;20.50;;;;;;;4.32;93.52;102680.00;10496306;28;20032;-92
2021/12/19 21:24:26;;;;;;;33.45;20.90;;;;;;;4.29;93.59;102676.19;10479149;28;20036;-91
2021/12/19 21:29:26;;;;;;;41.58;23.73;;;;;;;4.32;93.61;102666.13;10444045;28;20472;-91
2021/12/19 21:34:34;;;;;;;41.20;23.63;;;;;;;4.33;93.74;102674.03;10453199;28;20076;-91
2021/12/19 21:39:34;;;;;;;43.92;22.52;;;;;;;4.34;93.42;102664.63;10464104;28;20077;-92
2021/12/19 21:44:34;;;;;;;49.85;21.33;;;;;;;4.38;92.85;102678.03;10445076;28;20510;-91
2021/12/19 21:49:35;;;;;;;42.40;28.17;;;;;;;4.38;93.52;102665.06;10472631;28;20035;-90
2021/12/19 21:54:36;;;;;;;41.35;22.30;;;;;;;4.40;93.88;102675.59;10496512;28;20438;-92
2021/12/19 21:59:36;;;;;;;42.42;22.67;;;;;;;4.35;93.32;102663.84;10477309;28;20048;-91
2021/12/19 22:04:37;;;;;;;42.53;23.17;;;;;;;4.46;93.48;102659.75;10476798;28;20036;-90
2021/12/19 22:09:37;;;;;;;35.60;19.73;;;;;;;4.49;93.52;102671.34;10493367;28;20035;-92
2021/12/19 22:19:57;;;;;;;34.17;19.70;;;;;;;4.41;92.50;102660.19;10479494;28;20055;-92
2021/12/19 22:24:57;;;;;;;33.60;18.35;;;;;;;4.33;92.74;102658.50;10477811;28;20050;-92
2021/12/19 22:29:58;;;;;;;37.38;19.25;;;;;;;4.28;93.11;102658.81;10444136;28;20048;-92
2021/12/19 22:34:58;;;;;;;33.70;20.02;;;;;;;4.21;93.37;102646.88;10459563;28;20488;-92
2021/12/19 22:39:59;;;;;;;34.63;21.63;;;;;;;4.18;92.64;102643.97;10498361;28;20052;-92
2021/12/19 22:44:59;;;;;;;35.97;19.95;;;;;;;4.14;93.25;102634.06;10484747;28;20075;-92
2021/12/19 22:50:00;;;;;;;48.35;22.95;;;;;;;4.20;93.16;102650.22;10484794;28;20081;-92
2021/12/19 22:55:00;;;;;;;37.35;22.42;;;;;;;4.15;93.82;102633.28;10500025;28;20059;-92
2021/12/19 23:00:03;;;;;;;35.80;20.98;;;;;;;4.21;93.80;102632.25;10502249;28;20038;-91
2021/12/19 23:05:04;;;;;;;39.05;23.10;;;;;;;4.11;93.27;102627.78;10467339;28;20400;-92
2021/12/19 23:10:05;;;;;;;47.78;22.92;;;;;;;4.06;93.42;102617.75;10483053;28;20032;-91
2021/12/19 23:15:07;;;;;;;40.72;22.77;;;;;;;4.03;93.81;102623.50;10499929;28;20082;-92
2021/12/19 23:20:15;;;;;;;29.70;19.70;;;;;;;4.01;93.22;102616.34;10499708;28;20093;-92
2021/12/19 23:25:15;;;;;;;37.63;22.42;;;;;;;4.01;93.11;102611.16;10482792;28;20392;-92
2021/12/19 23:30:16;;;;;;;39.60;23.00;;;;;;;4.00;93.63;102609.34;10500180;28;20017;-91
2021/12/19 23:35:18;;;;;;;46.50;24.58;;;;;;;3.99;93.55;102608.41;10500149;28;20488;-92
2021/12/19 23:45:45;;;;;;;41.75;21.50;;;;;;;3.96;93.58;102596.06;10485689;28;20286;-91
2021/12/19 23:50:46;;;;;;;39.95;23.13;;;;;;;3.99;93.57;102587.69;10465305;28;20499;-91
2021/12/19 23:55:46;;;;;;;42.42;21.55;;;;;;;4.01;94.25;102577.47;10480851;28;20113;-91
